Time;durP1;ratioP1;P1;durP2;ratioP2;P2;SDS_P1;SDS_P2;PMS_P1;PMS_P2;Temp;Humidity;BMP_temperature;BMP_pressure;BME280_temperature;BME280_humidity;BME280_pressure;Samples;Min_cycle;Max_cycle;Signal;HPM_P1;HPM_P2
2021/06/18 00:02:11;;;;;;;5.90;4.65;;;;;;;22.27;48.80;95446.75;4990321;28;20215;-74
2021/06/18 00:04:36;;;;;;;6.63;5.28;;;;;;;22.25;48.25;95437.38;4999462;28;20230;-74
2021/06/18 00:07:02;;;;;;;7.80;4.80;;;;;;;22.25;48.67;95446.13;4974311;28;20282;-73
2021/06/18 00:09:27;;;;;;;5.95;4.57;;;;;;;22.30;48.46;95445.47;4974315;28;20262;-73
2021/06/18 00:11:52;;;;;;;5.88;4.63;;;;;;;22.32;48.02;95444.22;4991622;28;20175;-74
2021/06/18 00:14:18;;;;;;;6.50;4.82;;;;;;;22.27;48.30;95444.09;5001433;28;20187;-74
2021/06/18 00:16:43;;;;;;;8.52;4.97;;;;;;;22.26;48.03;95439.84;4985666;28;20172;-74
2021/06/18 00:19:08;;;;;;;8.18;4.90;;;;;;;22.27;47.84;95444.09;5011242;28;20199;-73
2021/06/18 00:21:34;;;;;;;5.45;4.93;;;;;;;22.24;47.26;95444.50;4997163;28;20551;-73
2021/06/18 00:23:59;;;;;;;8.02;4.60;;;;;;;22.27;46.97;95438.00;5010343;28;20646;-73
2021/06/18 00:26:24;;;;;;;6.15;4.30;;;;;;;22.32;46.83;95435.47;4990523;28;20203;-73
2021/06/18 00:28:51;;;;;;;6.70;4.38;;;;;;;22.24;46.93;95433.13;5014565;28;20187;-74
2021/06/18 00:31:16;;;;;;;5.47;4.60;;;;;;;22.21;46.96;95425.66;4997042;28;20179;-74
2021/06/18 00:33:42;;;;;;;5.53;3.80;;;;;;;22.19;46.77;95425.06;4995771;28;20183;-73
2021/06/18 00:36:07;;;;;;;4.45;4.10;;;;;;;22.25;46.76;95432.91;4985872;28;20611;-73
2021/06/18 00:38:33;;;;;;;7.53;4.93;;;;;;;22.25;46.55;95429.44;4977453;28;20742;-73
2021/06/18 00:40:58;;;;;;;6.10;4.28;;;;;;;22.29;46.59;95436.72;4977297;28;20238;-73
2021/06/18 00:43:23;;;;;;;8.40;4.30;;;;;;;22.33;45.83;95429.94;4992982;28;20235;-73
2021/06/18 00:45:49;;;;;;;7.45;4.38;;;;;;;22.30;45.24;95433.06;4967291;28;20211;-73
2021/06/18 00:48:16;;;;;;;4.72;3.92;;;;;;;22.40;43.95;95431.72;5014107;28;20187;-73
2021/06/18 00:50:42;;;;;;;4.60;3.78;;;;;;;22.46;43.17;95436.13;4996956;28;20608;-73
2021/06/18 00:53:07;;;;;;;4.25;3.65;;;;;;;22.38;42.98;95439.06;4996672;28;20261;-73
2021/06/18 00:55:33;;;;;;;4.30;3.88;;;;;;;22.38;43.19;95439.88;4979016;28;20207;-73
2021/06/18 00:57:59;;;;;;;5.85;3.22;;;;;;;22.28;43.09;95435.13;4988453;28;20179;-73
2021/06/18 01:00:24;;;;;;;5.55;3.60;;;;;;;22.18;43.30;95437.50;4996562;28;20183;-73
2021/06/18 01:02:50;;;;;;;4.65;3.67;;;;;;;22.08;43.57;95437.19;5011546;28;20703;-73
2021/06/18 01:05:17;;;;;;;5.00;3.38;;;;;;;22.01;43.26;95441.72;5013171;28;20199;-73
2021/06/18 01:08:00;;;;;;;5.40;3.42;;;;;;;21.94;43.41;95436.50;5011821;28;20757;-73
2021/06/18 01:10:37;;;;;;;3.53;3.22;;;;;;;21.92;43.11;95441.22;4994208;28;20215;-73
2021/06/18 01:13:10;;;;;;;3.33;3.03;;;;;;;21.85;43.75;95439.69;4976858;28;20237;-73
2021/06/18 01:15:48;;;;;;;4.78;3.55;;;;;;;21.80;43.23;95439.50;4992966;28;20192;-73
2021/06/18 01:18:16;;;;;;;6.13;4.10;;;;;;;21.78;43.40;95440.53;4986301;28;20539;-73
2021/06/18 01:20:43;;;;;;;4.35;3.65;;;;;;;21.73;43.31;95443.06;4980671;28;20176;-73
2021/06/18 01:23:21;;;;;;;7.07;3.30;;;;;;;21.66;44.43;95444.16;4992802;28;20188;-73
2021/06/18 01:25:51;;;;;;;6.07;3.95;;;;;;;21.62;44.10;95443.75;4976593;28;20198;-73
2021/06/18 01:28:31;;;;;;;5.03;3.58;;;;;;;21.66;44.29;95441.50;5000979;28;20267;-73
2021/06/18 01:30:58;;;;;;;4.88;4.05;;;;;;;21.67;43.96;95443.91;4993228;28;20202;-73
2021/06/18 01:33:25;;;;;;;5.63;3.42;;;;;;;21.72;42.90;95436.13;5012759;28;20535;-73
2021/06/18 01:35:53;;;;;;;4.30;3.28;;;;;;;21.78;42.31;95440.53;4995796;28;20622;-73
2021/06/18 01:38:20;;;;;;;4.30;3.50;;;;;;;21.81;41.97;95434.00;4990476;28;20537;-73
2021/06/18 01:40:48;;;;;;;5.07;2.80;;;;;;;21.76;41.94;95431.22;5001764;28;20668;-73
2021/06/18 01:43:15;;;;;;;7.68;3.28;;;;;;;21.75;41.23;95430.44;4976148;28;20183;-73
2021/06/18 01:45:43;;;;;;;4.72;3.15;;;;;;;21.73;41.25;95429.00;4975854;28;20238;-73
2021/06/18 01:48:09;;;;;;;3.40;3.10;;;;;;;21.72;41.67;95425.56;4960735;28;20188;-73
2021/06/18 01:50:35;;;;;;;3.58;3.05;;;;;;;21.64;41.86;95419.75;4986057;28;20185;-73
2021/06/18 01:53:04;;;;;;;4.82;3.13;;;;;;;21.57;42.04;95427.78;4977617;28;20216;-73
2021/06/18 01:55:31;;;;;;;3.22;2.92;;;;;;;21.52;42.28;95424.97;4976009;28;20196;-74
2021/06/18 01:57:58;;;;;;;3.60;2.95;;;;;;;21.49;42.13;95418.28;4976008;28;20182;-73
2021/06/18 02:00:24;;;;;;;4.90;3.17;;;;;;;21.44;42.54;95418.13;4983712;28;20187;-73
2021/06/18 02:02:50;;;;;;;5.43;2.90;;;;;;;21.42;43.01;95432.59;4992295;28;20175;-73
2021/06/18 02:05:17;;;;;;;3.97;3.58;;;;;;;21.36;45.47;95451.94;4995112;28;20207;-74
2021/06/18 02:07:43;;;;;;;5.80;4.50;;;;;;;20.99;50.73;95462.34;4995255;28;20203;-73
2021/06/18 02:10:09;;;;;;;5.43;4.93;;;;;;;20.93;50.03;95455.28;4991162;28;20540;-73
2021/06/18 02:12:35;;;;;;;5.13;4.63;;;;;;;20.78;50.45;95454.81;4983543;28;20180;-74
2021/06/18 02:15:00;;;;;;;5.10;4.55;;;;;;;20.88;49.64;95450.66;4975432;28;20254;-73
2021/06/18 02:17:27;;;;;;;4.82;4.43;;;;;;;20.76;49.88;95455.03;4975649;28;20259;-73
2021/06/18 02:19:55;;;;;;;6.15;4.45;;;;;;;20.73;49.70;95451.97;4975719;28;20714;-73
2021/06/18 02:22:21;;;;;;;7.82;4.45;;;;;;;20.73;49.96;95457.25;4970972;28;20643;-73
2021/06/18 02:24:48;;;;;;;6.40;4.57;;;;;;;20.78;48.32;95462.72;4978621;28;20200;-73
2021/06/18 02:27:14;;;;;;;4.72;4.32;;;;;;;20.91;48.06;95462.63;4975366;28;20199;-73
2021/06/18 02:29:43;;;;;;;5.25;4.57;;;;;;;20.94;48.72;95462.22;4975604;28;20182;-73
2021/06/18 02:32:13;;;;;;;6.05;4.85;;;;;;;21.03;49.20;95468.03;4982922;28;20230;-73
2021/06/18 02:34:39;;;;;;;5.93;5.30;;;;;;;21.13;49.38;95463.88;4990038;28;20268;-73
2021/06/18 02:37:06;;;;;;;6.45;5.85;;;;;;;21.15;50.65;95461.84;4994922;28;20171;-74
2021/06/18 02:39:32;;;;;;;6.32;5.72;;;;;;;21.23;50.31;95463.41;4994731;28;20172;-73
2021/06/18 02:41:58;;;;;;;6.85;6.25;;;;;;;21.28;51.38;95465.41;4992883;28;20190;-73
2021/06/18 02:44:23;;;;;;;7.63;6.88;;;;;;;21.34;51.90;95462.72;4982643;28;20207;-73
2021/06/18 02:47:00;;;;;;;6.20;5.70;;;;;;;21.36;52.06;95470.44;4992520;28;20616;-73
2021/06/18 02:49:43;;;;;;;9.07;6.93;;;;;;;21.36;52.30;95467.78;4975190;28;20214;-73
2021/06/18 02:52:14;;;;;;;8.80;6.18;;;;;;;21.41;51.58;95470.59;4976133;28;20188;-73
2021/06/18 02:54:45;;;;;;;6.65;6.05;;;;;;;21.46;51.71;95468.09;4992987;28;20779;-73
2021/06/18 02:57:18;;;;;;;6.97;6.20;;;;;;;21.33;51.61;95473.50;4994436;28;20266;-73
2021/06/18 02:59:47;;;;;;;8.20;6.18;;;;;;;21.36;50.96;95470.44;4994525;28;20167;-73
2021/06/18 03:02:16;;;;;;;6.68;5.70;;;;;;;21.40;51.06;95474.25;5012027;28;20216;-73
2021/06/18 03:04:42;;;;;;;6.63;5.93;;;;;;;21.39;50.67;95483.22;4985936;28;20207;-73
2021/06/18 03:07:13;;;;;;;8.07;5.72;;;;;;;21.40;50.33;95474.25;4983231;28;20203;-73
2021/06/18 03:10:00;;;;;;;6.38;5.78;;;;;;;21.40;50.20;95479.53;4974991;28;20228;-74
2021/06/18 03:12:27;;;;;;;5.78;5.28;;;;;;;21.44;49.68;95483.38;4974990;28;20191;-73
2021/06/18 03:15:01;;;;;;;6.80;5.88;;;;;;;21.40;49.85;95488.28;4979513;28;20203;-73
2021/06/18 03:17:28;;;;;;;6.07;5.57;;;;;;;21.41;49.25;95475.88;5002210;28;20175;-73
2021/06/18 03:19:58;;;;;;;7.07;5.43;;;;;;;21.45;49.19;95471.75;4978313;28;20709;-73
2021/06/18 03:22:23;;;;;;;5.97;5.10;;;;;;;21.43;49.02;95493.13;4963083;28;20279;-73
2021/06/18 03:24:51;;;;;;;6.18;5.25;;;;;;;21.42;49.25;95496.78;4987980;28;20238;-73
2021/06/18 03:27:20;;;;;;;6.03;5.03;;;;;;;21.36;49.32;95489.72;4986837;28;20191;-73
2021/06/18 03:29:46;;;;;;;6.85;5.22;;;;;;;21.37;49.31;95485.25;4994335;28;20182;-73
2021/06/18 03:32:11;;;;;;;8.68;5.10;;;;;;;21.39;49.18;95489.31;4994165;28;20187;-73
2021/06/18 03:34:36;;;;;;;5.55;5.05;;;;;;;21.48;48.75;95492.47;4992947;28;20338;-73
2021/06/18 03:37:03;;;;;;;5.03;4.63;;;;;;;21.44;49.07;95491.28;5008710;28;20555;-74
2021/06/18 03:39:29;;;;;;;6.00;4.82;;;;;;;21.43;49.00;95497.59;4993909;28;20183;-73
2021/06/18 03:41:55;;;;;;;5.38;4.63;;;;;;;21.55;48.26;95497.69;4994037;28;20183;-73
2021/06/18 03:44:21;;;;;;;5.88;4.70;;;;;;;21.58;48.34;95500.72;4993444;28;20179;-72
2021/06/18 03:46:47;;;;;;;5.05;4.55;;;;;;;21.65;48.01;95504.13;4984910;28;20212;-73
2021/06/18 03:49:12;;;;;;;4.90;4.43;;;;;;;21.71;47.96;95505.88;4985800;28;20218;-72
2021/06/18 03:51:38;;;;;;;5.75;4.57;;;;;;;21.81;47.38;95500.09;4993966;28;20671;-73
2021/06/18 03:54:05;;;;;;;6.00;4.32;;;;;;;22.42;46.04;95493.13;5011172;28;20266;-73
2021/06/18 03:56:31;;;;;;;5.20;4.25;;;;;;;23.22;43.84;95496.31;4996254;28;20206;-73
2021/06/18 03:58:58;;;;;;;5.25;4.45;;;;;;;23.57;42.44;95491.06;4988020;28;20654;-72
2021/06/18 04:01:24;;;;;;;5.40;4.90;;;;;;;24.24;41.57;95491.50;4978195;28;20186;-72
2021/06/18 04:03:51;;;;;;;4.57;4.13;;;;;;;24.78;40.30;95496.56;4977964;28;20191;-73
2021/06/18 04:06:17;;;;;;;7.63;4.40;;;;;;;25.46;39.33;95497.50;4977961;28;20211;-72
2021/06/18 04:08:42;;;;;;;4.13;3.72;;;;;;;25.76;38.43;95497.19;4986815;28;20184;-72
2021/06/18 04:11:08;;;;;;;6.40;4.60;;;;;;;26.22;37.01;95499.41;4995959;28;20183;-72
2021/06/18 04:13:35;;;;;;;4.72;4.20;;;;;;;26.24;36.67;95505.31;4972586;28;20190;-72
2021/06/18 04:16:00;;;;;;;5.30;4.05;;;;;;;26.33;36.81;95507.53;4979329;28;20200;-73
2021/06/18 04:18:26;;;;;;;5.07;4.57;;;;;;;26.53;36.37;95513.16;4982519;28;20172;-72
2021/06/18 04:20:52;;;;;;;5.88;4.13;;;;;;;26.78;36.11;95510.78;5003224;28;20180;-72
2021/06/18 04:23:19;;;;;;;6.50;4.30;;;;;;;27.25;35.20;95502.19;4995001;28;20180;-73
2021/06/18 04:25:44;;;;;;;6.30;3.70;;;;;;;27.75;33.81;95508.25;4995046;28;20200;-73
2021/06/18 04:28:10;;;;;;;4.63;4.18;;;;;;;27.68;34.10;95518.31;4979138;28;20229;-73
2021/06/18 04:30:35;;;;;;;5.38;3.70;;;;;;;28.33;33.42;95517.94;4988888;28;20281;-72
2021/06/18 04:33:00;;;;;;;5.55;3.38;;;;;;;28.65;32.09;95525.84;4979028;28;20206;-72
2021/06/18 04:35:26;;;;;;;3.63;3.00;;;;;;;29.11;31.36;95525.19;4977293;28;20574;-72
2021/06/18 04:37:52;;;;;;;6.40;3.58;;;;;;;29.03;31.63;95523.81;4977663;28;20172;-73
2021/06/18 04:40:17;;;;;;;5.47;3.30;;;;;;;29.25;31.33;95526.28;5003225;28;20562;-73
2021/06/18 04:42:42;;;;;;;5.60;3.63;;;;;;;29.79;30.66;95531.16;5010327;28;20183;-73
2021/06/18 04:45:08;;;;;;;5.75;3.50;;;;;;;30.50;29.18;95541.75;4996669;28;20740;-72
2021/06/18 04:47:36;;;;;;;8.00;3.00;;;;;;;30.57;29.09;95542.25;5013342;28;20243;-73
2021/06/18 04:50:02;;;;;;;4.97;3.20;;;;;;;30.69;28.92;95540.09;4986523;28;20171;-73
2021/06/18 04:52:27;;;;;;;6.88;3.53;;;;;;;30.33;29.15;95536.69;4977313;28;20644;-73
2021/06/18 04:55:01;;;;;;;3.50;3.00;;;;;;;31.17;28.38;95529.63;4976992;28;20241;-73
2021/06/18 04:57:26;;;;;;;3.72;2.60;;;;;;;31.65;27.24;95529.06;4977343;28;20331;-72
2021/06/18 04:59:51;;;;;;;4.65;2.88;;;;;;;30.97;28.12;95529.75;4985730;28;20655;-73
2021/06/18 05:02:17;;;;;;;3.55;2.95;;;;;;;31.10;28.48;95523.81;5014265;28;20179;-72
2021/06/18 05:04:42;;;;;;;3.47;2.47;;;;;;;31.63;27.55;95532.03;4996298;28;20562;-72
2021/06/18 05:07:07;;;;;;;5.15;2.63;;;;;;;31.77;27.53;95527.63;4996228;28;20234;-72
2021/06/18 05:09:32;;;;;;;3.80;2.75;;;;;;;31.96;27.31;95526.94;4990045;28;20192;-72
2021/06/18 05:11:58;;;;;;;6.38;2.20;;;;;;;32.81;25.58;95529.78;5002214;28;20182;-72
2021/06/18 05:14:23;;;;;;;9.13;3.17;;;;;;;32.11;27.36;95532.97;4976600;28;20212;-72
2021/06/18 05:16:48;;;;;;;4.80;2.40;;;;;;;32.40;26.84;95532.16;4976947;28;20199;-72
2021/06/18 05:19:14;;;;;;;4.70;2.45;;;;;;;33.05;26.07;95532.47;4978590;28;21467;-72
2021/06/18 05:21:39;;;;;;;4.35;2.50;;;;;;;33.12;25.60;95532.09;4995917;28;20183;-72
2021/06/18 05:24:06;;;;;;;3.83;2.08;;;;;;;33.63;24.50;95529.47;4995762;28;20194;-73
2021/06/18 05:26:32;;;;;;;4.68;2.50;;;;;;;33.25;26.23;95532.16;5013370;28;20666;-73
2021/06/18 05:28:58;;;;;;;5.43;2.53;;;;;;;33.10;26.21;95531.56;4996157;28;20549;-73
2021/06/18 05:31:23;;;;;;;6.07;2.20;;;;;;;33.21;26.06;95530.34;4988285;28;20184;-73
2021/06/18 05:33:49;;;;;;;3.40;2.33;;;;;;;33.68;24.75;95529.38;5010037;28;20187;-73
2021/06/18 05:36:14;;;;;;;2.65;2.22;;;;;;;33.73;24.91;95523.09;4990860;28;20219;-73
2021/06/18 05:38:39;;;;;;;2.65;2.45;;;;;;;33.67;26.14;95529.69;4984312;28;20187;-73
2021/06/18 05:41:05;;;;;;;5.40;2.80;;;;;;;33.91;24.73;95529.56;4996918;28;20189;-73
2021/06/18 05:43:30;;;;;;;5.05;2.72;;;;;;;33.19;25.95;95527.13;4972958;28;20214;-73
2021/06/18 05:45:55;;;;;;;5.10;2.35;;;;;;;33.60;25.68;95526.56;4995440;28;20309;-73
2021/06/18 05:48:21;;;;;;;5.68;2.47;;;;;;;34.11;24.46;95531.13;5013241;28;20183;-73
2021/06/18 05:50:46;;;;;;;4.90;2.80;;;;;;;34.07;24.75;95531.69;4995705;28;20168;-73
2021/06/18 05:53:12;;;;;;;3.08;2.00;;;;;;;34.01;24.80;95527.47;4986629;28;20269;-72
2021/06/18 05:55:37;;;;;;;5.65;2.30;;;;;;;34.60;23.91;95541.25;4980505;28;20563;-72
2021/06/18 05:58:02;;;;;;;6.13;3.13;;;;;;;34.91;23.76;95536.88;4993562;28;20539;-72
2021/06/18 06:00:28;;;;;;;3.97;2.50;;;;;;;34.82;23.57;95538.66;4976007;28;20199;-72
2021/06/18 06:02:54;;;;;;;6.05;2.50;;;;;;;35.13;23.20;95535.31;4999976;28;20183;-72
2021/06/18 06:05:19;;;;;;;4.10;2.55;;;;;;;35.70;23.07;95535.66;5005603;28;20202;-72
2021/06/18 06:07:46;;;;;;;4.30;2.33;;;;;;;34.81;23.11;95530.84;5012811;28;20211;-72
2021/06/18 06:10:11;;;;;;;4.10;2.47;;;;;;;34.43;23.50;95531.06;4995359;28;20678;-72
2021/06/18 06:12:37;;;;;;;5.88;2.63;;;;;;;34.85;23.73;95531.84;4994142;28;20222;-72
2021/06/18 06:15:03;;;;;;;3.97;2.80;;;;;;;34.32;23.73;95532.34;4984640;28;20346;-72
2021/06/18 06:17:28;;;;;;;3.88;2.47;;;;;;;34.77;23.06;95529.84;4975215;28;20177;-72
2021/06/18 06:19:53;;;;;;;3.38;2.50;;;;;;;34.72;23.18;95530.78;4975702;28;20211;-72
2021/06/18 06:22:19;;;;;;;2.75;2.47;;;;;;;34.07;24.40;95525.50;4975747;28;20257;-72
2021/06/18 06:24:44;;;;;;;5.25;2.70;;;;;;;34.87;22.97;95530.44;4998108;28;20277;-72
2021/06/18 06:27:10;;;;;;;3.08;2.78;;;;;;;34.14;24.48;95533.22;4994610;28;20207;-72
2021/06/18 06:29:35;;;;;;;5.28;3.00;;;;;;;34.04;24.79;95537.69;5012545;28;20171;-72
2021/06/18 06:32:00;;;;;;;4.07;3.00;;;;;;;34.39;24.18;95532.78;5012548;28;20187;-72
2021/06/18 06:34:26;;;;;;;6.97;3.17;;;;;;;34.71;23.80;95531.06;4988715;28;20215;-72
2021/06/18 06:36:51;;;;;;;4.47;2.67;;;;;;;34.07;24.03;95518.22;4984183;28;20250;-72
2021/06/18 06:39:16;;;;;;;2.90;2.60;;;;;;;34.40;23.67;95531.66;4997826;28;20184;-72
2021/06/18 06:41:42;;;;;;;5.00;3.00;;;;;;;34.87;22.97;95530.44;4974791;28;20219;-73
2021/06/18 06:44:07;;;;;;;4.50;3.00;;;;;;;34.97;23.45;95548.34;4958233;28;20755;-72
2021/06/18 06:46:33;;;;;;;5.93;2.90;;;;;;;35.17;22.72;95547.13;4997678;28;20747;-72
2021/06/18 06:48:58;;;;;;;3.53;3.10;;;;;;;34.90;23.36;95540.69;4993001;28;20229;-72
2021/06/18 06:51:24;;;;;;;7.07;2.95;;;;;;;34.17;24.25;95544.19;4994467;28;20542;-72
2021/06/18 06:53:49;;;;;;;6.80;3.42;;;;;;;33.66;25.37;95534.28;4994297;28;20179;-72
2021/06/18 06:56:15;;;;;;;4.10;3.20;;;;;;;34.77;22.87;95541.44;5006897;28;20227;-72
2021/06/18 06:58:42;;;;;;;4.32;3.13;;;;;;;34.82;23.31;95537.84;5000474;28;20259;-74
2021/06/18 07:01:07;;;;;;;3.30;3.00;;;;;;;34.99;23.33;95534.56;4975244;28;20172;-73
2021/06/18 07:03:32;;;;;;;5.88;3.17;;;;;;;33.92;24.45;95529.25;4987726;28;20194;-74
2021/06/18 07:05:58;;;;;;;4.65;3.40;;;;;;;33.69;24.85;95532.88;5010984;28;20551;-73
2021/06/18 07:08:25;;;;;;;4.53;3.30;;;;;;;31.45;28.31;95530.84;5003716;28;20183;-74
2021/06/18 07:10:51;;;;;;;4.18;3.28;;;;;;;31.96;27.25;95526.94;4994438;28;20597;-73
2021/06/18 07:13:16;;;;;;;4.20;3.20;;;;;;;31.61;28.35;95531.50;5010435;28;20236;-72
2021/06/18 07:15:43;;;;;;;6.43;3.58;;;;;;;32.83;26.94;95540.25;4994561;28;20213;-73
2021/06/18 07:18:08;;;;;;;7.00;3.55;;;;;;;33.00;25.40;95540.59;4985121;28;20542;-73
2021/06/18 07:20:34;;;;;;;4.10;3.42;;;;;;;34.03;24.63;95560.34;4979807;28;20178;-72
2021/06/18 07:22:59;;;;;;;4.60;3.63;;;;;;;33.66;25.54;95545.03;4958874;28;20203;-72
2021/06/18 07:25:25;;;;;;;4.03;3.63;;;;;;;32.81;27.18;95545.13;4974300;28;20203;-73
2021/06/18 07:27:50;;;;;;;7.75;3.92;;;;;;;32.41;27.52;95550.66;4964126;28;20219;-72
2021/06/18 07:30:16;;;;;;;5.60;3.25;;;;;;;29.99;31.17;95549.06;5000648;28;20559;-73
2021/06/18 07:32:41;;;;;;;4.00;3.47;;;;;;;29.45;32.90;95545.03;4978704;28;20269;-73
2021/06/18 07:35:07;;;;;;;4.88;4.30;;;;;;;28.88;33.56;95547.81;4978333;28;20593;-73
2021/06/18 07:37:32;;;;;;;4.60;4.20;;;;;;;29.52;33.29;95553.63;4978954;28;20591;-73
2021/06/18 07:39:57;;;;;;;6.13;4.22;;;;;;;29.15;33.98;95540.41;4986589;28;20206;-73
2021/06/18 07:42:23;;;;;;;5.35;4.00;;;;;;;29.84;31.80;95552.53;5015669;28;20241;-73
2021/06/18 07:44:48;;;;;;;8.13;4.07;;;;;;;28.97;33.72;95544.38;4997571;28;20191;-73
2021/06/18 07:47:14;;;;;;;6.40;4.50;;;;;;;29.06;33.94;95545.47;4997981;28;20234;-73
2021/06/18 07:49:39;;;;;;;7.05;5.00;;;;;;;28.73;33.71;95544.03;4990683;28;20184;-72
2021/06/18 07:52:05;;;;;;;5.25;4.07;;;;;;;28.95;33.28;95543.03;5004033;28;20180;-72
2021/06/18 07:54:30;;;;;;;6.68;3.97;;;;;;;29.02;33.54;95540.94;4977908;28;20238;-73
2021/06/18 07:56:56;;;;;;;4.63;4.22;;;;;;;29.17;33.62;95540.97;4994453;28;20230;-73
2021/06/18 07:59:21;;;;;;;6.72;4.78;;;;;;;29.71;32.54;95543.19;4998376;28;20183;-73
2021/06/18 08:01:47;;;;;;;5.32;4.43;;;;;;;30.31;32.40;95543.41;4989693;28;20178;-73
2021/06/18 08:04:12;;;;;;;5.53;4.35;;;;;;;30.76;30.34;95542.47;4997310;28;20191;-72
2021/06/18 08:06:37;;;;;;;6.45;4.35;;;;;;;30.41;31.98;95543.38;4997547;28;20203;-73
2021/06/18 08:09:04;;;;;;;7.07;4.30;;;;;;;30.02;32.12;95541.28;4997535;28;20168;-72
2021/06/18 08:11:29;;;;;;;8.05;4.47;;;;;;;30.73;31.36;95541.13;4988990;28;20525;-73
2021/06/18 08:13:54;;;;;;;6.47;4.55;;;;;;;29.15;34.24;95535.06;4995103;28;20325;-72
2021/06/18 08:16:20;;;;;;;6.07;4.80;;;;;;;29.81;33.15;95537.03;5014909;28;20226;-73
2021/06/18 08:18:45;;;;;;;7.32;4.25;;;;;;;30.09;32.37;95535.69;5015207;28;20167;-73
2021/06/18 08:21:10;;;;;;;6.88;4.65;;;;;;;29.80;33.85;95538.09;4993048;28;20183;-75
2021/06/18 08:23:36;;;;;;;5.55;4.95;;;;;;;30.10;33.36;95540.75;4985526;28;20600;-73
2021/06/18 08:26:02;;;;;;;10.50;5.35;;;;;;;30.16;34.39;95546.91;4977641;28;20203;-73
2021/06/18 08:28:27;;;;;;;6.43;4.43;;;;;;;30.34;34.45;95537.50;4981997;28;20184;-73
2021/06/18 08:30:53;;;;;;;10.85;5.55;;;;;;;29.66;35.47;95537.03;5000600;28;20253;-73
2021/06/18 08:33:18;;;;;;;8.18;5.22;;;;;;;29.09;35.89;95544.16;5006977;28;20191;-73
2021/06/18 08:35:44;;;;;;;6.47;5.30;;;;;;;29.76;34.71;95542.38;4993179;28;20211;-73
2021/06/18 08:38:09;;;;;;;5.88;5.03;;;;;;;30.10;33.71;95551.47;4996813;28;20179;-74
2021/06/18 08:40:35;;;;;;;5.85;5.28;;;;;;;30.25;34.13;95549.84;4996593;28;20190;-74
2021/06/18 08:43:02;;;;;;;6.90;5.18;;;;;;;30.56;33.75;95550.53;4992164;28;20187;-74
2021/06/18 08:45:28;;;;;;;5.65;5.15;;;;;;;30.53;34.91;95543.06;4990489;28;20702;-74
2021/06/18 08:47:53;;;;;;;6.28;5.20;;;;;;;30.53;34.21;95546.53;4996873;28;20211;-74
2021/06/18 08:50:25;;;;;;;6.55;5.05;;;;;;;30.42;34.20;95551.13;4996957;28;20171;-74
2021/06/18 08:52:53;;;;;;;10.18;5.38;;;;;;;29.51;37.22;95548.53;4995977;28;20187;-74
2021/06/18 08:55:20;;;;;;;5.65;5.13;;;;;;;30.31;34.74;95546.09;5002410;28;20196;-74
2021/06/18 08:57:54;;;;;;;5.18;4.75;;;;;;;30.98;32.46;95542.09;4977239;28;20184;-74
2021/06/18 09:00:23;;;;;;;9.52;5.22;;;;;;;29.93;34.64;95542.88;4994694;28;20171;-74
2021/06/18 09:02:49;;;;;;;8.45;5.40;;;;;;;30.31;33.62;95538.06;4977139;28;20171;-74
2021/06/18 09:05:15;;;;;;;5.85;5.18;;;;;;;30.26;34.50;95540.72;4988927;28;20207;-74
2021/06/18 09:07:46;;;;;;;7.38;5.40;;;;;;;30.01;34.29;95538.88;5009837;28;20226;-74
2021/06/18 09:10:39;;;;;;;7.47;5.10;;;;;;;29.69;36.26;95531.16;5014078;28;20242;-74
2021/06/18 09:13:09;;;;;;;6.03;5.15;;;;;;;29.51;35.98;95535.97;4996511;28;20548;-74
2021/06/18 09:15:36;;;;;;;8.90;5.53;;;;;;;29.80;36.48;95535.41;4987709;28;20199;-74
2021/06/18 09:18:25;;;;;;;7.85;5.50;;;;;;;29.98;33.18;95534.88;4995079;28;20270;-73
2021/06/18 09:20:53;;;;;;;6.93;5.57;;;;;;;29.13;35.10;95533.72;5013814;28;20175;-75
2021/06/18 09:23:23;;;;;;;5.68;5.18;;;;;;;29.84;34.71;95539.16;4996077;28;20250;-73
2021/06/18 09:25:49;;;;;;;7.10;5.63;;;;;;;29.90;34.40;95541.56;5004307;28;20706;-75
2021/06/18 09:28:14;;;;;;;9.10;5.53;;;;;;;29.45;34.57;95536.19;4984024;28;20207;-73
2021/06/18 09:30:40;;;;;;;8.63;6.13;;;;;;;29.91;35.04;95537.00;4993975;28;20187;-73
2021/06/18 09:33:27;;;;;;;7.35;5.28;;;;;;;30.18;36.26;95534.84;4994166;28;20180;-74
2021/06/18 09:36:07;;;;;;;6.88;5.13;;;;;;;29.87;34.33;95534.09;5000741;28;20610;-75
2021/06/18 09:38:43;;;;;;;8.90;5.65;;;;;;;30.02;33.24;95535.91;4984377;28;20203;-74
2021/06/18 09:41:31;;;;;;;7.03;5.40;;;;;;;30.48;34.19;95530.50;4976603;28;20245;-71
2021/06/18 09:44:02;;;;;;;6.15;5.55;;;;;;;30.54;33.68;95531.25;4976769;28;20187;-71
2021/06/18 09:46:54;;;;;;;6.85;4.60;;;;;;;31.12;32.48;95528.88;4983041;28;20207;-71
2021/06/18 09:49:29;;;;;;;6.63;4.88;;;;;;;31.40;32.42;95528.19;4979711;28;20187;-71
2021/06/18 09:51:56;;;;;;;6.80;4.60;;;;;;;31.28;31.43;95525.84;4997988;28;20191;-71
2021/06/18 09:54:22;;;;;;;8.02;4.78;;;;;;;31.73;31.61;95523.91;4979983;28;20584;-71
2021/06/18 09:56:47;;;;;;;6.65;4.70;;;;;;;31.90;28.07;95522.72;4985700;28;20262;-71
2021/06/18 09:59:23;;;;;;;8.30;5.18;;;;;;;32.01;29.87;95518.84;4985996;28;20274;-76
2021/06/18 10:01:53;;;;;;;7.30;5.07;;;;;;;31.64;30.42;95517.53;4976058;28;20176;-73
2021/06/18 10:04:18;;;;;;;5.07;4.60;;;;;;;31.79;31.21;95519.28;4975830;28;20666;-74
2021/06/18 10:06:43;;;;;;;10.60;5.57;;;;;;;31.45;30.89;95524.63;4986474;28;20203;-74
2021/06/18 10:09:11;;;;;;;6.60;4.55;;;;;;;31.69;28.47;95514.78;4990395;28;20179;-73
2021/06/18 10:11:40;;;;;;;5.05;4.65;;;;;;;31.79;30.07;95525.47;4989850;28;20193;-74
2021/06/18 10:14:05;;;;;;;6.75;5.18;;;;;;;31.41;28.90;95520.94;5011371;28;20175;-73
2021/06/18 10:16:30;;;;;;;6.28;4.82;;;;;;;31.92;29.04;95517.84;4979361;28;20606;-73
2021/06/18 10:18:57;;;;;;;5.75;4.97;;;;;;;31.91;30.05;95514.38;4991142;28;20245;-73
2021/06/18 10:21:24;;;;;;;6.28;4.63;;;;;;;31.97;30.62;95518.59;4988727;28;20242;-72
2021/06/18 10:23:53;;;;;;;7.45;4.72;;;;;;;32.24;29.60;95514.56;4994991;28;20203;-73
2021/06/18 10:26:19;;;;;;;10.48;4.72;;;;;;;32.34;29.32;95515.31;4995024;28;20290;-75
2021/06/18 10:28:57;;;;;;;5.03;4.60;;;;;;;32.42;28.02;95516.53;4994433;28;20270;-76
2021/06/18 10:31:28;;;;;;;7.32;4.60;;;;;;;32.55;29.56;95517.75;4988440;28;20197;-76
2021/06/18 10:34:07;;;;;;;7.68;4.53;;;;;;;32.79;27.80;95521.22;4994700;28;20542;-75
2021/06/18 10:36:32;;;;;;;5.70;5.05;;;;;;;32.28;27.52;95508.34;4995013;28;20610;-75
2021/06/18 10:39:14;;;;;;;5.28;4.78;;;;;;;32.40;27.95;95510.66;4977693;28;20175;-75
2021/06/18 10:41:53;;;;;;;7.20;4.50;;;;;;;32.72;28.41;95504.63;5004451;28;20773;-75
2021/06/18 10:44:37;;;;;;;5.38;4.75;;;;;;;32.29;28.54;95507.25;4992501;28;20262;-75
2021/06/18 10:47:07;;;;;;;6.38;5.15;;;;;;;31.90;28.16;95504.72;4992770;28;20242;-76
2021/06/18 10:49:40;;;;;;;7.60;5.22;;;;;;;32.08;29.19;95500.50;4974668;28;20556;-75
2021/06/18 10:52:16;;;;;;;8.75;4.55;;;;;;;32.67;27.84;95502.00;4984822;28;20218;-75
2021/06/18 10:54:53;;;;;;;5.47;4.72;;;;;;;32.87;27.79;95511.72;5012007;28;20202;-75
2021/06/18 10:57:24;;;;;;;7.30;5.13;;;;;;;32.49;27.99;95506.25;4994664;28;20705;-75
2021/06/18 10:59:54;;;;;;;6.32;4.88;;;;;;;32.31;27.68;95510.47;4994807;28;20225;-76
2021/06/18 11:02:26;;;;;;;4.85;4.38;;;;;;;32.52;26.29;95503.00;4983413;28;20211;-75
2021/06/18 11:04:55;;;;;;;5.20;4.18;;;;;;;32.51;25.22;95503.25;4994650;28;20262;-75
2021/06/18 11:07:30;;;;;;;10.57;5.32;;;;;;;32.32;25.76;95501.31;4975082;28;20298;-76
2021/06/18 11:10:00;;;;;;;6.25;4.25;;;;;;;32.38;27.60;95504.78;4975102;28;20175;-76
2021/06/18 11:12:26;;;;;;;4.75;3.88;;;;;;;32.78;26.11;95498.09;4981773;28;20176;-75
2021/06/18 11:14:56;;;;;;;6.05;3.70;;;;;;;32.55;26.49;95498.94;4991062;28;20198;-75
2021/06/18 11:17:51;;;;;;;7.80;4.28;;;;;;;32.61;27.02;95495.09;5011779;28;20175;-76
2021/06/18 11:20:25;;;;;;;6.63;5.07;;;;;;;32.30;25.94;95495.44;5011952;28;20724;-76
2021/06/18 11:23:05;;;;;;;6.32;4.10;;;;;;;32.52;25.92;95497.63;4985632;28;20614;-75
2021/06/18 11:25:39;;;;;;;5.40;4.03;;;;;;;32.80;24.48;95495.91;4980172;28;20213;-76
2021/06/18 11:31:02;;;;;;;5.68;3.28;;;;;;;33.64;23.10;95490.66;4992510;28;20290;-76
2021/06/18 11:33:53;;;;;;;5.57;4.13;;;;;;;33.78;22.75;95494.19;4964806;28;20222;-75
2021/06/18 11:36:22;;;;;;;5.43;3.40;;;;;;;33.95;22.92;95499.06;4983514;28;20235;-75
2021/06/18 11:38:58;;;;;;;5.22;3.20;;;;;;;34.11;22.80;95498.78;4990830;28;20555;-76
2021/06/18 11:41:30;;;;;;;6.57;3.72;;;;;;;33.93;22.57;95501.25;4974977;28;20171;-76